sensor_id;sensor_type;location;lat;lon;timestamp;P1;durP1;ratioP1;P2;durP2;ratioP2
49556;SDS011;35462;45.048;7.666;2022-12-07T00:05:16;26.83;;;16.98;;
49556;SDS011;35462;45.048;7.666;2022-12-07T00:20:32;22.40;;;16.13;;
49556;SDS011;35462;45.048;7.666;2022-12-07T00:35:54;25.33;;;14.07;;
49556;SDS011;35462;45.048;7.666;2022-12-07T00:51:11;19.23;;;12.55;;
49556;SDS011;35462;45.048;7.666;2022-12-07T01:06:28;15.50;;;11.13;;
49556;SDS011;35462;45.048;7.666;2022-12-07T01:21:45;15.68;;;10.25;;
49556;SDS011;35462;45.048;7.666;2022-12-07T01:37:00;17.65;;;11.40;;
49556;SDS011;35462;45.048;7.666;2022-12-07T02:07:33;22.42;;;16.02;;
49556;SDS011;35462;45.048;7.666;2022-12-07T02:53:49;24.13;;;17.20;;
49556;SDS011;35462;45.048;7.666;2022-12-07T03:09:12;22.52;;;16.73;;
49556;SDS011;35462;45.048;7.666;2022-12-07T03:24:39;24.90;;;17.02;;
49556;SDS011;35462;45.048;7.666;2022-12-07T03:40:04;20.63;;;15.60;;
49556;SDS011;35462;45.048;7.666;2022-12-07T03:55:25;22.00;;;14.52;;
49556;SDS011;35462;45.048;7.666;2022-12-07T04:10:44;17.55;;;13.05;;
49556;SDS011;35462;45.048;7.666;2022-12-07T04:26:00;19.13;;;13.93;;
49556;SDS011;35462;45.048;7.666;2022-12-07T04:41:15;20.08;;;14.15;;
49556;SDS011;35462;45.048;7.666;2022-12-07T04:56:31;19.92;;;14.20;;
49556;SDS011;35462;45.048;7.666;2022-12-07T05:11:47;18.90;;;15.07;;
49556;SDS011;35462;45.048;7.666;2022-12-07T05:27:04;22.05;;;15.10;;
49556;SDS011;35462;45.048;7.666;2022-12-07T05:42:20;16.88;;;12.25;;
49556;SDS011;35462;45.048;7.666;2022-12-07T05:57:36;23.70;;;15.80;;
49556;SDS011;35462;45.048;7.666;2022-12-07T06:12:52;16.77;;;12.98;;
49556;SDS011;35462;45.048;7.666;2022-12-07T06:28:07;21.25;;;15.90;;
49556;SDS011;35462;45.048;7.666;2022-12-07T06:43:23;23.23;;;14.85;;
49556;SDS011;35462;45.048;7.666;2022-12-07T06:58:39;22.63;;;15.55;;
49556;SDS011;35462;45.048;7.666;2022-12-07T07:13:55;27.58;;;16.38;;
49556;SDS011;35462;45.048;7.666;2022-12-07T07:29:14;23.20;;;14.55;;
49556;SDS011;35462;45.048;7.666;2022-12-07T07:44:30;27.52;;;17.95;;
49556;SDS011;35462;45.048;7.666;2022-12-07T07:59:45;23.00;;;16.20;;
49556;SDS011;35462;45.048;7.666;2022-12-07T08:15:01;26.58;;;16.77;;
49556;SDS011;35462;45.048;7.666;2022-12-07T08:30:18;22.73;;;16.42;;
49556;SDS011;35462;45.048;7.666;2022-12-07T08:45:34;26.75;;;16.77;;
49556;SDS011;35462;45.048;7.666;2022-12-07T09:00:50;28.23;;;18.45;;
49556;SDS011;35462;45.048;7.666;2022-12-07T09:16:06;29.05;;;19.40;;
49556;SDS011;35462;45.048;7.666;2022-12-07T09:31:24;28.33;;;18.17;;
49556;SDS011;35462;45.048;7.666;2022-12-07T09:46:40;25.75;;;17.67;;
49556;SDS011;35462;45.048;7.666;2022-12-07T10:02:04;24.92;;;16.25;;
49556;SDS011;35462;45.048;7.666;2022-12-07T10:17:40;28.63;;;17.98;;
49556;SDS011;35462;45.048;7.666;2022-12-07T10:33:02;25.70;;;18.73;;
49556;SDS011;35462;45.048;7.666;2022-12-07T11:19:34;28.70;;;19.38;;
49556;SDS011;35462;45.048;7.666;2022-12-07T11:35:16;31.35;;;21.10;;
49556;SDS011;35462;45.048;7.666;2022-12-07T11:50:39;32.45;;;22.13;;
49556;SDS011;35462;45.048;7.666;2022-12-07T12:05:58;36.30;;;24.30;;
49556;SDS011;35462;45.048;7.666;2022-12-07T12:21:14;36.83;;;25.20;;
49556;SDS011;35462;45.048;7.666;2022-12-07T12:51:58;32.40;;;22.60;;
49556;SDS011;35462;45.048;7.666;2022-12-07T13:23:05;32.65;;;20.70;;
49556;SDS011;35462;45.048;7.666;2022-12-07T13:38:25;28.58;;;21.20;;
49556;SDS011;35462;45.048;7.666;2022-12-07T14:09:24;32.72;;;25.33;;
49556;SDS011;35462;45.048;7.666;2022-12-07T14:24:42;36.95;;;23.55;;
49556;SDS011;35462;45.048;7.666;2022-12-07T14:39:58;34.92;;;23.25;;
49556;SDS011;35462;45.048;7.666;2022-12-07T15:10:42;37.15;;;23.38;;
49556;SDS011;35462;45.048;7.666;2022-12-07T15:25:58;40.67;;;26.98;;
49556;SDS011;35462;45.048;7.666;2022-12-07T15:41:14;40.60;;;27.67;;
49556;SDS011;35462;45.048;7.666;2022-12-07T15:56:30;42.58;;;28.50;;
49556;SDS011;35462;45.048;7.666;2022-12-07T16:11:46;44.17;;;29.35;;
49556;SDS011;35462;45.048;7.666;2022-12-07T16:27:02;41.55;;;28.80;;
49556;SDS011;35462;45.048;7.666;2022-12-07T16:42:18;46.85;;;30.35;;
49556;SDS011;35462;45.048;7.666;2022-12-07T16:57:34;45.20;;;28.77;;
49556;SDS011;35462;45.048;7.666;2022-12-07T17:12:50;42.95;;;28.02;;
49556;SDS011;35462;45.048;7.666;2022-12-07T17:28:06;40.92;;;29.17;;
49556;SDS011;35462;45.048;7.666;2022-12-07T17:43:22;42.10;;;29.20;;
49556;SDS011;35462;45.048;7.666;2022-12-07T17:58:38;48.40;;;31.30;;
49556;SDS011;35462;45.048;7.666;2022-12-07T18:13:54;49.25;;;32.60;;
49556;SDS011;35462;45.048;7.666;2022-12-07T18:29:12;46.00;;;32.33;;
49556;SDS011;35462;45.048;7.666;2022-12-07T18:44:29;45.08;;;29.67;;
49556;SDS011;35462;45.048;7.666;2022-12-07T18:59:45;33.55;;;24.15;;
49556;SDS011;35462;45.048;7.666;2022-12-07T19:15:01;36.42;;;24.45;;
49556;SDS011;35462;45.048;7.666;2022-12-07T19:30:17;32.75;;;24.75;;
49556;SDS011;35462;45.048;7.666;2022-12-07T19:45:33;34.22;;;24.05;;
49556;SDS011;35462;45.048;7.666;2022-12-07T20:00:49;31.58;;;23.23;;
49556;SDS011;35462;45.048;7.666;2022-12-07T20:16:05;32.13;;;21.40;;
49556;SDS011;35462;45.048;7.666;2022-12-07T20:31:21;31.25;;;21.92;;
49556;SDS011;35462;45.048;7.666;2022-12-07T20:46:37;37.00;;;23.92;;
49556;SDS011;35462;45.048;7.666;2022-12-07T21:01:53;35.33;;;23.58;;
49556;SDS011;35462;45.048;7.666;2022-12-07T21:17:09;36.92;;;25.90;;
49556;SDS011;35462;45.048;7.666;2022-12-07T21:32:26;37.72;;;23.35;;
49556;SDS011;35462;45.048;7.666;2022-12-07T21:47:41;40.05;;;26.65;;
49556;SDS011;35462;45.048;7.666;2022-12-07T22:02:57;35.13;;;25.67;;
49556;SDS011;35462;45.048;7.666;2022-12-07T22:18:14;34.95;;;23.55;;
49556;SDS011;35462;45.048;7.666;2022-12-07T22:33:30;33.05;;;23.48;;
49556;SDS011;35462;45.048;7.666;2022-12-07T22:48:46;35.78;;;24.33;;
49556;SDS011;35462;45.048;7.666;2022-12-07T23:04:02;34.47;;;23.85;;
49556;SDS011;35462;45.048;7.666;2022-12-07T23:19:18;33.22;;;23.33;;
49556;SDS011;35462;45.048;7.666;2022-12-07T23:34:34;33.72;;;22.90;;
49556;SDS011;35462;45.048;7.666;2022-12-07T23:49:50;30.83;;;21.60;;
